Neihart, Montana
Current Conditions -  °F | °C
As of 5:56 AM on Thursday 30 Oct 2014 (Local Time) from KGFA Reporting Station
Clear Clear  
Wind Chill: 22°   Ceiling: Unl
Heat Index: 28°   Visibility: 10mi
Dew Point: 28°   Wind: 6mph
Humidity: 100%   Direction: 200°SSW
Pressure: 30.25"   Gusts: NA
Location:  46.93°N, 110.74°W
Report Text: KGFA 301156Z AUTO 20005KT 10SM CLR M02/M02 A3025 RMK AO2 SLP267 T10201016 10069 21022 52005
Loading
Personal Weather Stations






























Interactive Weather Map
Tropical Storm Tracking
New forecast layout! Learn more

10-Day Weather Forecast

Advertisements
Track Severe Weather on mobile